Capt Al Devall — WCW9164 — position and weather

sailwx.info

Track history (hours):
 
Tides and Currents Weather Stations Pressure Air Temp Water Temp Dewpoint Dewpoint Depression Visibility Wind Speed Wind Dir Waves Ship Positions

Capt Al Devall

Owner: J & J DEVALL MARITIME MARINE OPERATORS, Sulphur, LA. More information available from US FCC via Universal Licensing System and Coast Guard Vessel Documentation Center.

Last reported at 2017-Nov-24 15:00 UTC. Time now 2017-Nov-24 15:12 UTC.
Position N 30°03' W 093°44'.

; draft 3 m.

Type: Towing. MMSI: 366972270.

Date/timePositionNaut miles runAvg speedWind from/ knotsBaromVisibWave heightAir tempDewpointWater temp
2017-Nov-24 15:00N 30°03' W 093°44'0 0.0
2017-Nov-24 14:30N 30°03' W 093°44'0 0.0
2017-Nov-24 14:00N 30°03' W 093°44'0 0.0
2017-Nov-24 13:30N 30°03' W 093°44'0 0.0
2017-Nov-24 13:00N 30°03' W 093°44'0 0.0
2017-Nov-24 12:30N 30°03' W 093°44'0 0.0
2017-Nov-24 11:58N 30°03' W 093°44'0 0.0
2017-Nov-24 11:30N 30°03' W 093°44'0 0.0
2017-Nov-24 11:00N 30°03' W 093°44'0 0.0
2017-Nov-24 10:30N 30°03' W 093°44'0 0.0
2017-Nov-24 10:00N 30°03' W 093°44'0 0.0
2017-Nov-24 09:30N 30°03' W 093°44'0 0.0
2017-Nov-24 09:00N 30°03' W 093°44'0 0.0
2017-Nov-24 08:30N 30°03' W 093°44'0 0.0
2017-Nov-24 07:59N 30°03' W 093°44'0 0.0
2017-Nov-24 07:30N 30°03' W 093°44'0 0.0
2017-Nov-24 07:00N 30°03' W 093°44'0 0.0
2017-Nov-24 06:30N 30°03' W 093°44'0 0.0
2017-Nov-24 06:00N 30°03' W 093°44'0 0.0
2017-Nov-24 05:25N 30°03' W 093°44'0 0.0
2017-Nov-24 05:00N 30°03' W 093°44'0 0.0
2017-Nov-24 04:07N 30°03' W 093°44'0 0.0
2017-Nov-24 03:43N 30°03' W 093°44'0 0.0
2017-Nov-24 02:45N 30°03' W 093°44'0 0.0
2017-Nov-24 02:29N 30°03' W 093°44'0 0.0
2017-Nov-23 15:12N 30°03' W 093°44'0 0.0
2017-Nov-23 14:01N 30°03' W 093°44'0 0.0
2017-Nov-23 14:00N 30°03' W 093°44'0 0.0
2017-Nov-23 12:40N 30°03' W 093°44'0 0.0
2017-Nov-23 12:20N 30°03' W 093°44'0 0.0
2017-Nov-23 12:00N 30°03' W 093°44'0 0.0
2017-Nov-23 11:29N 30°03' W 093°44'0 0.0
2017-Nov-23 10:59N 30°03' W 093°44'0 0.0
2017-Nov-23 10:20N 30°03' W 093°44'0 0.0
2017-Nov-23 09:54N 30°03' W 093°44'0 0.0
2017-Nov-23 08:56N 30°03' W 093°44'0 0.0
2017-Nov-23 08:30N 30°03' W 093°44'0 0.0
2017-Nov-23 07:58N 30°03' W 093°44'0 0.0
2017-Nov-23 07:29N 30°03' W 093°44'0 0.0
2017-Nov-23 07:00N 30°03' W 093°44'0 0.0
2017-Nov-23 06:26N 30°03' W 093°44'0 0.0
2017-Nov-23 05:45N 30°03' W 093°44'0 0.0
2017-Nov-23 05:30N 30°03' W 093°44'0 0.0
2017-Nov-23 05:00N 30°03' W 093°44'0 0.0
2017-Nov-23 04:30N 30°03' W 093°44'0 0.0
2017-Nov-23 04:00N 30°03' W 093°44'0 0.0
2017-Nov-23 03:30N 30°03' W 093°44'0 0.0
2017-Nov-23 02:59N 30°03' W 093°44'0 0.0
2017-Nov-23 02:25N 30°03' W 093°44'  
2017-Nov-17 06:08N 30°04' W 093°44'0 1.3
2017-Nov-17 05:52N 30°03' W 093°44'68 6.0
2017-Nov-16 18:28N 29°29' W 094°52'4 8.1
2017-Nov-16 18:00N 29°32' W 094°54'4 8.1
2017-Nov-16 17:30N 29°35' W 094°56'4 7.1
2017-Nov-16 17:00N 29°37' W 095°00'1 1.8
2017-Nov-16 16:30N 29°36' W 095°01'0 0.0
2017-Nov-16 16:00N 29°36' W 095°01'0 0.0
2017-Nov-16 15:30N 29°36' W 095°01'0 0.0
2017-Nov-16 15:00N 29°36' W 095°01'0 0.0
2017-Nov-16 14:30N 29°36' W 095°01'0 0.0
2017-Nov-16 14:00N 29°36' W 095°01'0 0.0
2017-Nov-16 13:30N 29°36' W 095°01'0 0.0
2017-Nov-16 13:00N 29°36' W 095°01'0 0.0
2017-Nov-16 12:30N 29°37' W 095°01'0 0.0
2017-Nov-16 12:00N 29°36' W 095°01'0 0.0
2017-Nov-16 11:30N 29°36' W 095°01'0 0.0
2017-Nov-16 11:00N 29°37' W 095°01'0 0.0
2017-Nov-16 10:30N 29°36' W 095°01'0 0.0
2017-Nov-16 10:00N 29°36' W 095°01'0 0.0
2017-Nov-16 09:30N 29°36' W 095°01'0 0.0
2017-Nov-16 09:00N 29°36' W 095°01'0 0.0
2017-Nov-16 08:30N 29°36' W 095°01'0 0.0
2017-Nov-16 08:00N 29°36' W 095°01'0 0.0
2017-Nov-16 07:30N 29°36' W 095°01'0 0.0
2017-Nov-16 07:00N 29°36' W 095°01'0 0.0
2017-Nov-16 06:30N 29°36' W 095°01'0 0.0
2017-Nov-16 06:00N 29°36' W 095°01'0 0.0
2017-Nov-16 05:30N 29°36' W 095°01'0 0.0
2017-Nov-16 05:00N 29°36' W 095°01'0 0.0
2017-Nov-16 04:30N 29°37' W 095°01'0 0.0
2017-Nov-16 04:00N 29°36' W 095°01'0 0.0
2017-Nov-16 03:30N 29°37' W 095°01'2 4.9
2017-Nov-16 03:00N 29°37' W 094°58'4 7.0
2017-Nov-16 02:25N 29°34' W 094°55'17 0.8
2017-Nov-15 04:56N 29°29' W 094°37'0 0.0
2017-Nov-15 02:39N 29°29' W 094°37'  
Track history (hours):
 
Tides and Currents Weather Stations Pressure Air Temp Water Temp Dewpoint Dewpoint Depression Visibility Wind Speed Wind Dir Waves Ship Positions

Capt Al Devall

Owner: J & J DEVALL MARITIME MARINE OPERATORS, Sulphur, LA. More information available from US FCC via Universal Licensing System and Coast Guard Vessel Documentation Center.

Last reported at 2017-Nov-24 15:00 UTC. Time now 2017-Nov-24 15:12 UTC.
Position N 30°03' W 093°44'.

; draft 3 m.

Type: Towing. MMSI: 366972270.

Date/timePositionNaut miles runAvg speedWind from/ knotsBaromVisibWave heightAir tempDewpointWater temp
2017-Nov-24 15:00N 30°03' W 093°44'0 0.0
2017-Nov-24 14:30N 30°03' W 093°44'0 0.0
2017-Nov-24 14:00N 30°03' W 093°44'0 0.0
2017-Nov-24 13:30N 30°03' W 093°44'0 0.0
2017-Nov-24 13:00N 30°03' W 093°44'0 0.0
2017-Nov-24 12:30N 30°03' W 093°44'0 0.0
2017-Nov-24 11:58N 30°03' W 093°44'0 0.0
2017-Nov-24 11:30N 30°03' W 093°44'0 0.0
2017-Nov-24 11:00N 30°03' W 093°44'0 0.0
2017-Nov-24 10:30N 30°03' W 093°44'0 0.0
2017-Nov-24 10:00N 30°03' W 093°44'0 0.0
2017-Nov-24 09:30N 30°03' W 093°44'0 0.0
2017-Nov-24 09:00N 30°03' W 093°44'0 0.0
2017-Nov-24 08:30N 30°03' W 093°44'0 0.0
2017-Nov-24 07:59N 30°03' W 093°44'0 0.0
2017-Nov-24 07:30N 30°03' W 093°44'0 0.0
2017-Nov-24 07:00N 30°03' W 093°44'0 0.0
2017-Nov-24 06:30N 30°03' W 093°44'0 0.0
2017-Nov-24 06:00N 30°03' W 093°44'0 0.0
2017-Nov-24 05:25N 30°03' W 093°44'0 0.0
2017-Nov-24 05:00N 30°03' W 093°44'0 0.0
2017-Nov-24 04:07N 30°03' W 093°44'0 0.0
2017-Nov-24 03:43N 30°03' W 093°44'0 0.0
2017-Nov-24 02:45N 30°03' W 093°44'0 0.0
2017-Nov-24 02:29N 30°03' W 093°44'0 0.0
2017-Nov-23 15:12N 30°03' W 093°44'0 0.0
2017-Nov-23 14:01N 30°03' W 093°44'0 0.0
2017-Nov-23 14:00N 30°03' W 093°44'0 0.0
2017-Nov-23 12:40N 30°03' W 093°44'0 0.0
2017-Nov-23 12:20N 30°03' W 093°44'0 0.0
2017-Nov-23 12:00N 30°03' W 093°44'0 0.0
2017-Nov-23 11:29N 30°03' W 093°44'0 0.0
2017-Nov-23 10:59N 30°03' W 093°44'0 0.0
2017-Nov-23 10:20N 30°03' W 093°44'0 0.0
2017-Nov-23 09:54N 30°03' W 093°44'0 0.0
2017-Nov-23 08:56N 30°03' W 093°44'0 0.0
2017-Nov-23 08:30N 30°03' W 093°44'0 0.0
2017-Nov-23 07:58N 30°03' W 093°44'0 0.0
2017-Nov-23 07:29N 30°03' W 093°44'0 0.0
2017-Nov-23 07:00N 30°03' W 093°44'0 0.0
2017-Nov-23 06:26N 30°03' W 093°44'0 0.0
2017-Nov-23 05:45N 30°03' W 093°44'0 0.0
2017-Nov-23 05:30N 30°03' W 093°44'0 0.0
2017-Nov-23 05:00N 30°03' W 093°44'0 0.0
2017-Nov-23 04:30N 30°03' W 093°44'0 0.0
2017-Nov-23 04:00N 30°03' W 093°44'0 0.0
2017-Nov-23 03:30N 30°03' W 093°44'0 0.0
2017-Nov-23 02:59N 30°03' W 093°44'0 0.0
2017-Nov-23 02:25N 30°03' W 093°44'  
2017-Nov-17 06:08N 30°04' W 093°44'0 1.3
2017-Nov-17 05:52N 30°03' W 093°44'68 6.0
2017-Nov-16 18:28N 29°29' W 094°52'4 8.1
2017-Nov-16 18:00N 29°32' W 094°54'4 8.1
2017-Nov-16 17:30N 29°35' W 094°56'4 7.1
2017-Nov-16 17:00N 29°37' W 095°00'1 1.8
2017-Nov-16 16:30N 29°36' W 095°01'0 0.0
2017-Nov-16 16:00N 29°36' W 095°01'0 0.0
2017-Nov-16 15:30N 29°36' W 095°01'0 0.0
2017-Nov-16 15:00N 29°36' W 095°01'0 0.0
2017-Nov-16 14:30N 29°36' W 095°01'0 0.0
2017-Nov-16 14:00N 29°36' W 095°01'0 0.0
2017-Nov-16 13:30N 29°36' W 095°01'0 0.0
2017-Nov-16 13:00N 29°36' W 095°01'0 0.0
2017-Nov-16 12:30N 29°37' W 095°01'0 0.0
2017-Nov-16 12:00N 29°36' W 095°01'0 0.0
2017-Nov-16 11:30N 29°36' W 095°01'0 0.0
2017-Nov-16 11:00N 29°37' W 095°01'0 0.0
2017-Nov-16 10:30N 29°36' W 095°01'0 0.0
2017-Nov-16 10:00N 29°36' W 095°01'0 0.0
2017-Nov-16 09:30N 29°36' W 095°01'0 0.0
2017-Nov-16 09:00N 29°36' W 095°01'0 0.0
2017-Nov-16 08:30N 29°36' W 095°01'0 0.0
2017-Nov-16 08:00N 29°36' W 095°01'0 0.0
2017-Nov-16 07:30N 29°36' W 095°01'0 0.0
2017-Nov-16 07:00N 29°36' W 095°01'0 0.0
2017-Nov-16 06:30N 29°36' W 095°01'0 0.0
2017-Nov-16 06:00N 29°36' W 095°01'0 0.0
2017-Nov-16 05:30N 29°36' W 095°01'0 0.0
2017-Nov-16 05:00N 29°36' W 095°01'0 0.0
2017-Nov-16 04:30N 29°37' W 095°01'0 0.0
2017-Nov-16 04:00N 29°36' W 095°01'0 0.0
2017-Nov-16 03:30N 29°37' W 095°01'2 4.9
2017-Nov-16 03:00N 29°37' W 094°58'4 7.0
2017-Nov-16 02:25N 29°34' W 094°55'17 0.8
2017-Nov-15 04:56N 29°29' W 094°37'0 0.0
2017-Nov-15 02:39N 29°29' W 094°37'  

Dump ship's entire track history